Time;durP1;ratioP1;P1;durP2;ratioP2;P2;SDS_P1;SDS_P2;PMS_P1;PMS_P2;Temp;Humidity;BMP_temperature;BMP_pressure;BME280_temperature;BME280_humidity;BME280_pressure;Samples;Min_cycle;Max_cycle;Signal;HPM_P1;HPM_P2
2023/03/06 00:03:32;;;;;;;30.00;14.93;;;;;;;4.23;100.00;99888.00;8364486;28;20041;-59
2023/03/06 00:07:32;;;;;;;24.70;12.02;;;;;;;4.24;100.00;99886.19;8358797;28;20041;-60
2023/03/06 00:11:33;;;;;;;29.02;12.98;;;;;;;4.22;100.00;99878.28;8356205;28;20123;-59
2023/03/06 00:15:33;;;;;;;31.55;15.05;;;;;;;4.23;100.00;99871.97;8352846;28;20032;-59
2023/03/06 00:19:34;;;;;;;34.63;16.42;;;;;;;4.19;100.00;99875.84;8384023;28;20123;-52
2023/03/06 00:23:35;;;;;;;45.45;21.00;;;;;;;4.22;100.00;99872.06;8379563;28;20056;-54
2023/03/06 00:27:35;;;;;;;26.42;14.05;;;;;;;4.20;100.00;99866.00;8358928;28;20074;-53
2023/03/06 00:31:36;;;;;;;33.05;14.98;;;;;;;4.24;100.00;99856.78;8358787;28;20114;-54
2023/03/06 00:35:38;;;;;;;28.27;14.45;;;;;;;4.29;100.00;99844.75;8390966;28;20037;-53
2023/03/06 00:39:39;;;;;;;33.15;15.30;;;;;;;4.28;100.00;99847.53;8358709;28;20513;-53
2023/03/06 00:43:39;;;;;;;31.33;14.70;;;;;;;4.30;100.00;99843.75;8358273;28;20388;-55
2023/03/06 00:47:42;;;;;;;29.85;15.00;;;;;;;4.31;100.00;99836.59;8357676;28;20037;-53
2023/03/06 00:51:42;;;;;;;30.83;15.05;;;;;;;4.27;100.00;99832.47;8341746;28;20563;-53
2023/03/06 00:55:44;;;;;;;30.27;15.00;;;;;;;4.21;100.00;99831.09;8325151;28;20037;-59
2023/03/06 00:59:45;;;;;;;33.83;16.20;;;;;;;4.22;100.00;99822.13;8325321;28;20056;-59
2023/03/06 01:03:46;;;;;;;31.73;16.05;;;;;;;4.22;100.00;99824.78;8326110;28;20095;-59
2023/03/06 01:07:47;;;;;;;37.35;17.60;;;;;;;4.22;100.00;99821.25;8358200;28;20043;-59
2023/03/06 01:11:47;;;;;;;37.15;18.20;;;;;;;4.23;100.00;99812.25;8354447;28;20053;-59
2023/03/06 01:15:48;;;;;;;39.10;19.15;;;;;;;4.26;100.00;99812.00;8355766;28;20047;-59
2023/03/06 01:19:48;;;;;;;41.30;19.05;;;;;;;4.28;100.00;99810.09;8357829;28;20037;-59
2023/03/06 01:23:49;;;;;;;38.00;20.10;;;;;;;4.29;100.00;99801.06;8357283;28;20085;-59
2023/03/06 01:27:50;;;;;;;39.03;19.65;;;;;;;4.34;100.00;99801.59;8356744;28;20048;-59
2023/03/06 01:31:51;;;;;;;45.47;22.52;;;;;;;4.33;100.00;99794.53;8358081;28;20044;-59
2023/03/06 01:35:52;;;;;;;43.78;20.73;;;;;;;4.31;100.00;99789.31;8356562;28;20068;-59
2023/03/06 01:39:52;;;;;;;44.70;21.48;;;;;;;4.32;100.00;99784.78;8357600;28;20067;-59
2023/03/06 01:43:53;;;;;;;45.65;21.67;;;;;;;4.33;100.00;99781.16;8356786;28;20765;-59
2023/03/06 01:47:53;;;;;;;43.17;22.17;;;;;;;4.35;100.00;99773.84;8357665;28;20467;-59
2023/03/06 01:52:01;;;;;;;47.92;23.50;;;;;;;4.36;100.00;99765.69;8357637;28;20044;-59
2023/03/06 01:56:02;;;;;;;51.08;22.27;;;;;;;4.40;100.00;99763.66;8389676;28;20120;-59
2023/03/06 02:00:21;;;;;;;51.72;23.17;;;;;;;4.41;100.00;99768.88;8359201;28;20118;-53
2023/03/06 02:04:22;;;;;;;49.88;22.77;;;;;;;4.43;100.00;99763.41;8363181;28;20431;-53
2023/03/06 02:08:25;;;;;;;46.65;21.95;;;;;;;4.46;100.00;99755.16;8360944;28;20041;-54
2023/03/06 02:12:26;;;;;;;48.38;20.60;;;;;;;4.44;100.00;99752.59;8362831;28;20045;-53
2023/03/06 02:16:29;;;;;;;47.45;21.88;;;;;;;4.45;100.00;99750.78;8362421;28;20125;-53
2023/03/06 02:20:35;;;;;;;45.95;22.30;;;;;;;4.47;100.00;99746.13;8361298;28;20460;-59
2023/03/06 02:24:44;;;;;;;48.97;22.10;;;;;;;4.45;100.00;99738.22;8345508;28;20057;-59
2023/03/06 02:28:44;;;;;;;47.20;21.63;;;;;;;4.47;100.00;99732.75;8333315;28;20384;-59
2023/03/06 02:32:45;;;;;;;45.13;22.70;;;;;;;4.45;100.00;99737.41;8360948;28;20047;-59
2023/03/06 02:36:51;;;;;;;42.47;21.40;;;;;;;4.45;100.00;99737.41;8328368;28;20056;-59
2023/03/06 02:40:52;;;;;;;44.92;22.00;;;;;;;4.43;100.00;99732.16;8329420;28;20407;-59
2023/03/06 02:44:53;;;;;;;45.58;22.55;;;;;;;4.42;100.00;99719.72;8329163;28;20057;-59
2023/03/06 02:48:54;;;;;;;52.45;23.25;;;;;;;4.44;100.00;99716.94;8328570;28;20034;-60
2023/03/06 02:52:55;;;;;;;48.40;22.90;;;;;;;4.42;100.00;99710.88;8328834;28;20579;-59
2023/03/06 02:56:56;;;;;;;48.05;24.95;;;;;;;4.40;100.00;99707.47;8328353;28;20416;-59
2023/03/06 03:00:57;;;;;;;50.33;24.50;;;;;;;4.42;100.00;99706.34;8329301;28;20088;-59
2023/03/06 03:04:57;;;;;;;55.83;24.85;;;;;;;4.44;100.00;99708.91;8370534;28;20115;-59
2023/03/06 03:08:58;;;;;;;55.50;25.73;;;;;;;4.42;100.00;99710.88;8360934;28;20032;-60
2023/03/06 03:12:59;;;;;;;57.38;25.58;;;;;;;4.42;100.00;99706.34;8357956;28;20071;-59
2023/03/06 03:16:59;;;;;;;63.38;28.83;;;;;;;4.41;100.00;99703.81;8361250;28;20045;-59
2023/03/06 03:21:01;;;;;;;56.58;26.65;;;;;;;4.46;100.00;99698.94;8360385;28;20043;-60
2023/03/06 03:25:03;;;;;;;60.70;27.27;;;;;;;4.47;100.00;99697.97;8359413;28;20403;-59
2023/03/06 03:29:04;;;;;;;65.72;29.23;;;;;;;4.49;100.00;99701.38;8360830;28;20102;-59
2023/03/06 03:33:05;;;;;;;59.78;27.05;;;;;;;4.47;100.00;99688.13;8359788;28;20072;-53
2023/03/06 03:37:06;;;;;;;57.20;26.10;;;;;;;4.48;100.00;99694.34;8391779;28;20120;-51
2023/03/06 03:41:06;;;;;;;55.42;25.92;;;;;;;4.51;100.00;99694.09;8360895;28;20429;-52
2023/03/06 03:45:08;;;;;;;61.95;26.77;;;;;;;4.50;100.00;99697.72;8360208;28;20040;-53
2023/03/06 03:49:08;;;;;;;61.03;26.80;;;;;;;4.53;100.00;99692.97;8360327;28;20048;-53
2023/03/06 03:53:10;;;;;;;61.40;26.88;;;;;;;4.50;100.00;99681.66;8356171;28;20045;-58
2023/03/06 03:57:12;;;;;;;58.30;27.13;;;;;;;4.50;100.00;99681.66;8359630;28;20062;-59
2023/03/06 04:01:17;;;;;;;59.45;26.85;;;;;;;4.48;100.00;99667.56;8359674;28;20049;-57
2023/03/06 04:05:17;;;;;;;57.22;25.83;;;;;;;4.49;100.00;99666.59;8391706;28;20036;-58
2023/03/06 04:09:20;;;;;;;61.80;25.75;;;;;;;4.48;100.00;99662.22;8358840;28;20044;-58
2023/03/06 04:13:21;;;;;;;63.15;27.55;;;;;;;4.48;100.00;99662.22;8359170;28;20045;-57
2023/03/06 04:17:22;;;;;;;60.42;26.95;;;;;;;4.47;100.00;99661.38;8358656;28;20052;-60
2023/03/06 04:21:24;;;;;;;61.10;27.90;;;;;;;4.46;100.00;99653.47;8359001;28;20041;-57
2023/03/06 04:25:25;;;;;;;56.08;25.70;;;;;;;4.42;100.00;99646.66;8358615;28;20056;-58
2023/03/06 04:29:26;;;;;;;59.15;27.00;;;;;;;4.34;100.00;99639.25;8358513;28;20043;-58
2023/03/06 04:33:27;;;;;;;64.18;28.88;;;;;;;4.35;100.00;99634.72;8357387;28;20477;-58
2023/03/06 04:37:29;;;;;;;69.90;28.60;;;;;;;4.31;100.00;99628.78;8358412;28;20048;-58
2023/03/06 04:41:30;;;;;;;68.85;27.83;;;;;;;4.28;100.00;99617.47;8358298;28;20043;-58
2023/03/06 04:45:31;;;;;;;61.58;26.35;;;;;;;4.26;100.00;99616.75;8358479;28;20044;-58
2023/03/06 04:49:32;;;;;;;62.03;26.35;;;;;;;4.27;100.00;99610.44;8359345;28;20041;-58
2023/03/06 04:53:32;;;;;;;60.05;26.52;;;;;;;4.30;100.00;99618.22;8358171;28;20123;-58
2023/03/06 04:57:35;;;;;;;68.28;27.75;;;;;;;4.30;100.00;99610.19;8358821;28;20091;-59
2023/03/06 05:01:35;;;;;;;64.72;28.23;;;;;;;4.30;100.00;99611.03;8356860;28;20407;-60
2023/03/06 05:05:36;;;;;;;63.55;27.27;;;;;;;4.31;100.00;99607.41;8356166;28;20037;-59
2023/03/06 05:09:36;;;;;;;77.30;30.02;;;;;;;4.32;100.00;99613.56;8347771;28;20095;-59
2023/03/06 05:13:37;;;;;;;66.78;28.00;;;;;;;4.31;100.00;99598.50;8353694;28;20566;-54
2023/03/06 05:17:38;;;;;;;62.80;27.63;;;;;;;4.34;100.00;99601.78;8339066;28;20380;-53
2023/03/06 05:21:38;;;;;;;69.70;31.63;;;;;;;4.35;100.00;99603.50;8353228;28;20033;-53
2023/03/06 05:25:39;;;;;;;74.65;31.30;;;;;;;4.40;100.00;99603.13;8352289;28;20431;-52
2023/03/06 05:29:40;;;;;;;75.95;31.35;;;;;;;4.42;100.00;99615.38;8293675;28;20091;-55
2023/03/06 05:33:41;;;;;;;79.53;30.83;;;;;;;4.42;100.00;99614.56;8312979;28;20406;-53
2023/03/06 05:37:41;;;;;;;68.10;30.55;;;;;;;4.42;100.00;99614.56;8341693;28;20038;-53
2023/03/06 05:41:41;;;;;;;70.60;30.95;;;;;;;4.44;100.00;99617.94;8320180;28;20044;-54
2023/03/06 05:45:43;;;;;;;73.55;31.90;;;;;;;4.42;100.00;99609.22;8326111;28;20065;-52
2023/03/06 05:49:43;;;;;;;73.65;32.90;;;;;;;4.42;100.00;99611.88;8326281;28;20522;-53
2023/03/06 05:53:44;;;;;;;74.53;32.70;;;;;;;4.42;100.00;99619.91;8326476;28;20463;-53
2023/03/06 05:57:44;;;;;;;75.80;30.98;;;;;;;4.43;100.00;99616.25;8338300;28;20040;-51
2023/03/06 06:01:44;;;;;;;72.15;31.13;;;;;;;4.43;100.00;99606.41;8359461;28;20061;-52
2023/03/06 06:05:45;;;;;;;76.63;31.42;;;;;;;4.45;100.00;99614.31;8332229;28;20069;-50
2023/03/06 06:09:45;;;;;;;70.47;31.88;;;;;;;4.44;100.00;99601.88;8326543;28;20369;-51
2023/03/06 06:13:47;;;;;;;75.18;29.77;;;;;;;4.45;100.00;99614.31;8350043;28;20099;-52
2023/03/06 06:17:47;;;;;;;71.30;29.05;;;;;;;4.43;100.00;99600.19;8353484;28;20454;-52
2023/03/06 06:21:50;;;;;;;70.78;29.65;;;;;;;4.45;100.00;99609.78;8355853;28;20033;-52
2023/03/06 06:25:51;;;;;;;72.25;31.25;;;;;;;4.43;100.00;99603.72;8357001;28;20534;-52
2023/03/06 06:29:51;;;;;;;73.60;31.83;;;;;;;4.46;100.00;99605.28;8334154;28;20492;-50
2023/03/06 06:33:52;;;;;;;73.55;31.75;;;;;;;4.46;100.00;99607.97;8348925;28;20128;-52
2023/03/06 06:37:52;;;;;;;83.47;32.13;;;;;;;4.48;100.00;99603.34;8343724;28;20033;-57
2023/03/06 06:41:52;;;;;;;68.38;31.15;;;;;;;4.51;100.00;99603.09;8339665;28;20491;-58
2023/03/06 06:45:53;;;;;;;69.57;30.52;;;;;;;4.47;100.00;99604.31;8335900;28;20052;-58
2023/03/06 06:49:55;;;;;;;71.53;31.67;;;;;;;4.52;100.00;99605.66;8338806;28;20029;-57
2023/03/06 06:53:55;;;;;;;74.53;30.27;;;;;;;4.53;100.00;99614.53;8337165;28;20060;-58
2023/03/06 06:57:56;;;;;;;64.72;28.98;;;;;;;4.54;100.00;99613.56;8325375;28;20079;-57
2023/03/06 07:01:56;;;;;;;70.05;29.40;;;;;;;4.53;100.00;99619.88;8329098;28;20498;-58
2023/03/06 07:05:56;;;;;;;70.00;30.50;;;;;;;4.57;100.00;99618.66;8357977;28;20037;-57
2023/03/06 07:09:57;;;;;;;74.25;30.75;;;;;;;4.57;100.00;99613.31;8358223;28;20045;-57
2023/03/06 07:13:58;;;;;;;68.10;28.77;;;;;;;4.63;100.00;99623.53;8357205;28;20036;-58
2023/03/06 07:18:00;;;;;;;73.13;30.48;;;;;;;4.67;100.00;99620.44;8339477;28;20495;-57
2023/03/06 07:22:00;;;;;;;73.75;29.48;;;;;;;4.74;100.00;99620.78;8340039;28;20044;-58
2023/03/06 07:26:01;;;;;;;78.75;30.95;;;;;;;4.75;100.00;99623.34;8356025;28;20116;-58
2023/03/06 07:30:02;;;;;;;67.32;30.00;;;;;;;4.80;100.00;99625.66;8357486;28;20044;-58
2023/03/06 07:34:02;;;;;;;72.78;29.35;;;;;;;4.79;100.00;99623.97;8347143;28;20064;-58
2023/03/06 07:38:03;;;;;;;70.68;30.42;;;;;;;4.80;100.00;99625.66;8340664;28;20436;-58
2023/03/06 07:42:06;;;;;;;78.72;31.30;;;;;;;4.88;100.00;99628.56;8334330;28;20118;-57
2023/03/06 07:46:07;;;;;;;76.97;32.30;;;;;;;4.92;99.95;99621.97;8350380;28;20052;-58
2023/03/06 07:50:09;;;;;;;81.78;32.60;;;;;;;4.99;99.19;99617.78;8351463;28;20046;-58
2023/03/06 07:54:09;;;;;;;72.32;31.27;;;;;;;5.06;98.76;99621.69;8341068;28;20415;-58
2023/03/06 07:58:10;;;;;;;71.93;30.45;;;;;;;5.13;97.82;99622.84;8311065;28;20061;-57
2023/03/06 08:02:11;;;;;;;75.65;30.15;;;;;;;5.17;97.59;99621.63;8317253;28;20124;-56
2023/03/06 08:06:14;;;;;;;67.80;29.85;;;;;;;5.17;97.54;99624.28;8314045;28;20042;-57
2023/03/06 08:10:16;;;;;;;64.95;29.33;;;;;;;5.25;95.91;99628.03;8322871;28;20041;-57
2023/03/06 08:14:16;;;;;;;60.63;27.48;;;;;;;5.29;94.18;99632.16;8316108;28;20045;-57
2023/03/06 08:18:17;;;;;;;60.45;25.77;;;;;;;5.41;93.85;99632.94;8311786;28;20042;-58
2023/03/06 08:22:17;;;;;;;63.88;26.52;;;;;;;5.57;93.34;99627.97;8310582;28;20115;-57
2023/03/06 08:26:23;;;;;;;58.40;24.95;;;;;;;5.76;91.89;99620.91;8307079;28;20042;-57
2023/03/06 08:30:23;;;;;;;45.22;19.40;;;;;;;5.78;89.15;99616.28;8322611;28;20144;-60
2023/03/06 08:34:24;;;;;;;42.00;19.58;;;;;;;5.66;87.92;99629.88;8321585;28;20109;-58
2023/03/06 08:38:25;;;;;;;53.25;22.08;;;;;;;5.73;89.29;99628.34;8314651;28;20046;-58
2023/03/06 08:42:25;;;;;;;44.70;19.83;;;;;;;5.68;87.68;99627.91;8295240;28;20050;-58
2023/03/06 08:46:27;;;;;;;47.38;20.98;;;;;;;5.64;87.71;99629.16;8289120;28;20070;-58
2023/03/06 08:50:28;;;;;;;49.08;21.40;;;;;;;5.78;86.87;99627.00;8312781;28;20037;-58
2023/03/06 08:54:28;;;;;;;51.45;22.27;;;;;;;5.96;87.36;99617.41;8321121;28;20046;-58
2023/03/06 08:58:29;;;;;;;55.05;24.83;;;;;;;6.04;86.82;99627.47;8302903;28;20209;-58
2023/03/06 09:02:31;;;;;;;55.78;24.23;;;;;;;6.00;86.83;99623.31;8348318;28;20099;-58
2023/03/06 09:06:34;;;;;;;52.90;25.17;;;;;;;6.00;87.21;99623.31;8318378;28;20042;-58
2023/03/06 09:10:35;;;;;;;59.30;24.88;;;;;;;6.01;86.50;99619.69;8320865;28;20037;-58
2023/03/06 09:14:35;;;;;;;53.75;25.25;;;;;;;6.07;88.38;99618.28;8360314;28;20120;-58
2023/03/06 09:18:36;;;;;;;55.83;26.10;;;;;;;6.06;86.71;99622.78;8360858;28;20040;-58
2023/03/06 09:22:37;;;;;;;48.05;22.58;;;;;;;6.07;85.99;99615.59;8359973;28;20033;-58
2023/03/06 09:26:38;;;;;;;57.88;24.88;;;;;;;5.98;87.22;99622.63;8359996;28;20044;-58
2023/03/06 09:30:39;;;;;;;52.50;23.35;;;;;;;5.97;87.66;99620.91;8318974;28;20038;-58
2023/03/06 09:34:39;;;;;;;46.13;21.92;;;;;;;5.97;86.74;99623.59;8304223;28;20049;-54
2023/03/06 09:38:40;;;;;;;49.50;22.17;;;;;;;6.15;86.22;99627.34;8326348;28;20099;-57
2023/03/06 09:42:40;;;;;;;46.95;22.80;;;;;;;6.24;84.83;99623.84;8326956;28;20358;-58
2023/03/06 09:47:10;;;;;;;46.75;22.35;;;;;;;6.56;84.13;99624.53;8310708;28;20392;-57
2023/03/06 09:51:15;;;;;;;53.85;24.17;;;;;;;6.78;83.46;99616.25;8313864;28;20419;-57
2023/03/06 09:55:18;;;;;;;58.17;25.23;;;;;;;6.89;83.90;99613.44;8326424;28;20048;-57
2023/03/06 09:59:21;;;;;;;56.50;24.27;;;;;;;6.86;84.24;99616.38;8326891;28;20037;-59
2023/03/06 10:03:33;;;;;;;50.95;23.45;;;;;;;6.78;82.76;99618.94;8326561;28;20420;-58
2023/03/06 10:07:46;;;;;;;48.60;24.88;;;;;;;6.92;83.92;99615.00;8310588;28;20056;-59
2023/03/06 10:11:54;;;;;;;51.55;25.77;;;;;;;6.70;83.08;99597.28;8311096;28;20041;-59
2023/03/06 10:16:05;;;;;;;53.97;22.60;;;;;;;6.77;81.84;99611.03;8325419;28;20041;-58
2023/03/06 10:20:28;;;;;;;50.10;21.50;;;;;;;6.63;81.84;99614.94;8324306;28;20038;-59
2023/03/06 10:24:56;;;;;;;39.13;19.70;;;;;;;6.65;81.26;99618.31;8325480;28;20415;-59
2023/03/06 10:29:17;;;;;;;43.83;20.75;;;;;;;6.52;81.87;99612.38;8325920;28;20405;-58
2023/03/06 10:33:38;;;;;;;44.03;20.63;;;;;;;6.67;82.42;99611.00;8325007;28;20053;-59
2023/03/06 10:37:38;;;;;;;50.92;22.35;;;;;;;6.71;82.77;99609.72;8312494;28;20084;-59
2023/03/06 10:41:38;;;;;;;39.28;18.50;;;;;;;6.63;81.62;99620.31;8299585;28;20120;-59
2023/03/06 10:45:54;;;;;;;38.20;18.90;;;;;;;6.71;81.78;99609.72;8292447;28;20038;-59
2023/03/06 10:49:59;;;;;;;39.00;18.98;;;;;;;6.81;81.25;99617.81;8310792;28;20512;-59
2023/03/06 10:54:16;;;;;;;42.20;19.83;;;;;;;6.87;81.08;99602.00;8312264;28;20053;-59
2023/03/06 10:58:24;;;;;;;35.60;18.02;;;;;;;6.84;80.20;99602.28;8322019;28;20037;-58
2023/03/06 11:02:29;;;;;;;46.63;20.13;;;;;;;6.74;81.51;99612.13;8314611;28;20116;-59
2023/03/06 11:06:33;;;;;;;44.63;20.02;;;;;;;6.61;84.02;99616.91;8301775;28;20046;-59
2023/03/06 11:10:34;;;;;;;44.75;18.75;;;;;;;6.69;82.76;99614.41;8316721;28;20424;-59
2023/03/06 11:14:34;;;;;;;40.88;20.33;;;;;;;6.86;82.65;99611.03;8323975;28;20107;-58
2023/03/06 11:18:39;;;;;;;47.10;22.02;;;;;;;6.88;81.77;99611.75;8323392;28;20145;-59
2023/03/06 11:22:42;;;;;;;49.83;22.13;;;;;;;6.94;81.49;99611.19;8327879;28;20091;-57
2023/03/06 11:26:55;;;;;;;44.90;20.60;;;;;;;7.24;80.40;99610.19;8324327;28;20033;-59
2023/03/06 11:31:17;;;;;;;44.97;22.05;;;;;;;7.28;79.84;99607.09;8314072;28;20061;-58
2023/03/06 11:35:23;;;;;;;40.13;18.85;;;;;;;7.12;79.82;99612.19;8309552;28;20221;-58
2023/03/06 11:39:49;;;;;;;39.33;18.73;;;;;;;7.00;78.10;99597.19;8323489;28;20519;-58
2023/03/06 11:44:29;;;;;;;39.50;18.95;;;;;;;6.84;79.51;99602.28;8325892;28;20033;-58
2023/03/06 11:48:34;;;;;;;40.03;17.83;;;;;;;6.92;78.91;99593.50;8337946;28;20036;-58
2023/03/06 11:52:58;;;;;;;33.95;15.95;;;;;;;7.20;77.77;99595.34;8356118;28;20049;-59
2023/03/06 11:57:05;;;;;;;33.40;17.15;;;;;;;7.42;76.70;99587.00;8339228;28;20521;-59
2023/03/06 12:01:31;;;;;;;33.45;16.33;;;;;;;7.65;75.22;99583.81;8343716;28;20042;-59
2023/03/06 12:05:40;;;;;;;25.63;14.07;;;;;;;7.75;74.91;99583.81;8338998;28;20091;-58
2023/03/06 12:09:54;;;;;;;31.10;14.30;;;;;;;7.53;74.67;99574.22;8340229;28;20102;-58
2023/03/06 12:14:22;;;;;;;30.70;14.88;;;;;;;7.58;74.84;99581.84;8355306;28;20045;-59
2023/03/06 12:18:48;;;;;;;28.45;12.18;;;;;;;7.44;74.37;99575.09;8354997;28;20418;-59
2023/03/06 12:22:52;;;;;;;30.27;13.15;;;;;;;7.32;74.13;99570.84;8384024;28;20041;-58
2023/03/06 12:27:07;;;;;;;27.27;13.50;;;;;;;7.13;74.38;99570.88;8355305;28;20090;-59
2023/03/06 12:31:22;;;;;;;24.73;12.70;;;;;;;7.10;75.96;99573.84;8355260;28;20040;-59
2023/03/06 12:36:03;;;;;;;20.52;10.15;;;;;;;7.16;74.10;99570.59;8337256;28;20045;-59
2023/03/06 12:40:43;;;;;;;23.50;10.77;;;;;;;7.21;73.87;99557.59;8322011;28;20560;-58
2023/03/06 12:45:03;;;;;;;28.63;13.43;;;;;;;7.22;74.04;99558.41;8336306;28;20041;-58
2023/03/06 12:49:13;;;;;;;29.17;15.15;;;;;;;7.31;75.95;99558.41;8354431;28;20051;-59
2023/03/06 12:53:23;;;;;;;32.63;16.35;;;;;;;7.25;75.62;99553.59;8354384;28;20418;-58
2023/03/06 12:57:26;;;;;;;32.40;15.60;;;;;;;7.12;76.12;99547.69;8354104;28;20123;-58
2023/03/06 13:02:00;;;;;;;35.72;16.63;;;;;;;7.07;76.06;99543.72;8354367;28;20472;-58
2023/03/06 13:10:33;;;;;;;36.80;17.67;;;;;;;7.16;77.11;99543.72;8375842;27;20927;-58
2023/03/06 13:18:56;;;;;;;29.55;15.02;;;;;;;7.15;77.11;99536.66;8320452;28;20458;-59
2023/03/06 13:22:57;;;;;;;34.33;15.35;;;;;;;7.14;75.87;99529.56;8313232;28;20038;-60
2023/03/06 13:27:01;;;;;;;32.08;15.20;;;;;;;7.11;76.97;99523.66;8345723;28;20120;-60
2023/03/06 13:31:02;;;;;;;34.63;17.45;;;;;;;7.07;75.70;99530.28;8350388;28;20382;-59
2023/03/06 13:48:43;;;;;;;35.92;18.58;;;;;;;7.45;75.83;99517.66;8396029;27;20624;-59
2023/03/06 13:53:00;;;;;;;32.80;16.35;;;;;;;7.33;76.43;99524.19;8390149;27;20033;-57
2023/03/06 14:01:47;;;;;;;33.97;17.23;;;;;;;6.83;81.08;99521.81;8342162;27;20717;-59
2023/03/06 14:05:49;;;;;;;33.25;16.33;;;;;;;6.56;83.76;99522.50;8298643;28;20466;-59
2023/03/06 14:10:02;;;;;;;40.83;17.83;;;;;;;6.44;88.41;99523.63;8319582;28;20257;-59
2023/03/06 14:14:02;;;;;;;33.47;17.02;;;;;;;6.40;89.25;99527.56;8309447;28;20041;-59
2023/03/06 14:18:12;;;;;;;41.13;17.50;;;;;;;6.24;89.51;99511.16;8304996;28;20073;-60
2023/03/06 14:22:17;;;;;;;36.05;16.73;;;;;;;6.19;90.74;99521.44;8325333;28;20461;-59
2023/03/06 14:26:21;;;;;;;34.08;16.40;;;;;;;6.15;91.60;99508.44;8331166;28;20079;-60
2023/03/06 14:30:23;;;;;;;47.08;18.00;;;;;;;6.24;93.38;99504.94;8309928;28;20072;-59
2023/03/06 14:34:29;;;;;;;36.92;15.98;;;;;;;6.38;92.54;99501.84;8304649;28;20041;-60
2023/03/06 14:38:35;;;;;;;45.15;17.80;;;;;;;6.61;93.57;99496.09;8302178;28;20038;-60
2023/03/06 14:42:36;;;;;;;39.00;16.88;;;;;;;6.79;92.45;99499.75;8294666;28;20594;-60
2023/03/06 14:46:37;;;;;;;37.58;16.55;;;;;;;6.93;89.99;99493.97;8302073;28;20455;-60
2023/03/06 14:50:38;;;;;;;32.70;15.82;;;;;;;6.98;89.58;99497.06;8307060;28;20124;-60
2023/03/06 14:54:43;;;;;;;35.17;16.02;;;;;;;6.88;89.81;99496.22;8332268;28;20445;-60
2023/03/06 14:58:56;;;;;;;34.85;15.68;;;;;;;6.67;90.32;99484.78;8337095;28;20128;-59
2023/03/06 15:02:57;;;;;;;35.03;16.65;;;;;;;6.64;91.59;99490.44;8319654;28;20414;-60
2023/03/06 15:06:58;;;;;;;38.67;17.00;;;;;;;6.50;92.84;99496.22;8312564;28;20041;-60
2023/03/06 15:11:02;;;;;;;38.15;18.52;;;;;;;6.42;94.32;99488.03;8299735;28;20369;-60
2023/03/06 15:15:24;;;;;;;35.47;17.17;;;;;;;6.37;92.87;99487.56;8292315;28;20128;-60
2023/03/06 15:19:25;;;;;;;36.90;16.65;;;;;;;6.33;94.92;99488.84;8292578;28;20038;-60
2023/03/06 15:23:36;;;;;;;42.42;17.63;;;;;;;6.34;95.92;99478.97;8290349;28;20633;-60
2023/03/06 15:27:37;;;;;;;42.17;17.75;;;;;;;6.27;96.10;99492.09;8291753;28;20046;-60
2023/03/06 15:31:40;;;;;;;36.00;16.38;;;;;;;6.25;95.10;99486.00;8292195;28;20408;-60
2023/03/06 15:35:51;;;;;;;44.17;18.98;;;;;;;6.25;95.28;99490.53;8300254;28;20037;-59
2023/03/06 15:40:16;;;;;;;40.97;19.52;;;;;;;6.21;94.91;99479.22;8274271;28;20046;-59
2023/03/06 15:44:17;;;;;;;42.60;20.73;;;;;;;6.19;94.58;99481.19;8291631;28;20038;-60
2023/03/06 15:48:17;;;;;;;41.75;19.08;;;;;;;6.20;95.04;99469.50;8301670;28;20033;-59
2023/03/06 15:52:20;;;;;;;41.38;19.05;;;;;;;6.22;93.26;99453.25;8273360;28;20384;-60
2023/03/06 15:56:27;;;;;;;41.60;19.10;;;;;;;6.21;91.89;99460.44;8269718;28;20077;-60
2023/03/06 16:00:33;;;;;;;39.90;17.98;;;;;;;6.18;92.45;99452.66;8275777;28;20088;-61
2023/03/06 16:04:33;;;;;;;37.00;17.30;;;;;;;6.23;93.24;99449.56;8287894;28;20064;-60
2023/03/06 16:08:34;;;;;;;40.92;17.63;;;;;;;6.26;92.45;99443.94;8279450;28;20057;-60
2023/03/06 16:12:34;;;;;;;37.55;18.02;;;;;;;6.33;92.29;99429.81;8264171;28;20061;-58
2023/03/06 16:16:36;;;;;;;40.88;18.30;;;;;;;6.39;91.24;99439.97;8289304;28;20038;-58
2023/03/06 16:20:37;;;;;;;38.10;18.13;;;;;;;6.36;90.12;99424.16;8287603;28;20057;-51
2023/03/06 16:24:37;;;;;;;36.33;18.38;;;;;;;6.39;91.63;99418.50;8284290;28;20083;-52
2023/03/06 16:28:40;;;;;;;41.53;19.38;;;;;;;6.45;91.05;99423.31;8289246;28;20037;-52
2023/03/06 16:32:40;;;;;;;43.50;18.30;;;;;;;6.43;90.05;99419.91;8289844;28;20049;-51
2023/03/06 16:36:41;;;;;;;42.70;19.45;;;;;;;6.42;91.16;99417.38;8287187;28;20049;-53
2023/03/06 16:40:42;;;;;;;38.45;19.05;;;;;;;6.42;90.74;99418.22;8287986;28;20057;-50
2023/03/06 16:44:42;;;;;;;39.65;19.80;;;;;;;6.43;91.22;99425.28;8286670;28;20041;-52
2023/03/06 16:48:43;;;;;;;41.05;19.58;;;;;;;6.43;90.90;99419.91;8310560;28;20037;-52
2023/03/06 16:52:44;;;;;;;43.22;18.90;;;;;;;6.48;88.05;99420.34;8270468;28;20040;-51
2023/03/06 16:56:44;;;;;;;36.60;17.10;;;;;;;6.45;86.36;99422.47;8259792;28;20041;-52
2023/03/06 17:00:45;;;;;;;35.90;17.15;;;;;;;6.50;85.67;99421.06;8301747;28;20121;-52
2023/03/06 17:04:45;;;;;;;33.70;16.05;;;;;;;6.48;83.98;99406.94;8307244;28;20065;-53
2023/03/06 17:08:47;;;;;;;31.10;15.73;;;;;;;6.45;82.66;99407.22;8295091;28;20455;-58
2023/03/06 17:12:47;;;;;;;26.38;13.57;;;;;;;6.45;79.96;99406.34;8254798;28;20042;-61
2023/03/06 17:16:48;;;;;;;28.58;13.93;;;;;;;6.39;80.08;99407.78;8280876;28;20566;-59
2023/03/06 17:20:50;;;;;;;28.38;13.82;;;;;;;6.30;79.10;99405.94;8285618;28;20057;-59
2023/03/06 17:24:51;;;;;;;29.20;13.98;;;;;;;6.25;78.36;99392.09;8283122;28;20049;-59
2023/03/06 17:28:51;;;;;;;29.02;13.85;;;;;;;6.17;78.28;99386.59;8280231;28;20076;-59
2023/03/06 17:32:52;;;;;;;32.97;15.40;;;;;;;6.16;78.13;99382.19;8293023;28;20044;-59
2023/03/06 17:36:52;;;;;;;32.67;15.10;;;;;;;6.15;77.45;99383.19;8305028;28;20042;-59
2023/03/06 17:40:53;;;;;;;32.70;15.55;;;;;;;6.15;78.08;99387.69;8267998;28;20046;-59
2023/03/06 17:44:53;;;;;;;35.13;15.90;;;;;;;6.14;77.86;99386.88;8275584;28;20045;-59
2023/03/06 17:48:54;;;;;;;34.72;16.67;;;;;;;6.19;77.67;99386.44;8256993;28;20077;-59
2023/03/06 17:52:54;;;;;;;33.65;14.82;;;;;;;6.10;78.08;99390.81;8256787;28;20145;-60
2023/03/06 17:56:59;;;;;;;36.03;16.13;;;;;;;6.10;78.89;99385.44;8261394;28;20046;-61
2023/03/06 18:01:12;;;;;;;30.23;15.68;;;;;;;6.06;79.23;99378.66;8283790;28;20053;-53
2023/03/06 18:05:13;;;;;;;32.50;15.18;;;;;;;6.03;79.67;99381.63;8278690;28;20041;-53
2023/03/06 18:09:13;;;;;;;29.80;15.73;;;;;;;6.03;79.16;99378.94;8281141;28;20042;-52
2023/03/06 18:13:14;;;;;;;34.95;15.88;;;;;;;6.05;79.50;99385.03;8280939;28;20061;-53
2023/03/06 18:17:14;;;;;;;34.15;14.98;;;;;;;6.06;79.23;99386.72;8260176;28;20035;-59
2023/03/06 18:21:15;;;;;;;32.05;15.00;;;;;;;6.08;78.91;99393.63;8286645;28;20103;-60
2023/03/06 18:25:16;;;;;;;31.52;14.77;;;;;;;6.13;77.26;99385.16;8263911;28;20404;-61
2023/03/06 18:29:17;;;;;;;28.63;14.70;;;;;;;6.17;77.27;99383.06;8305702;28;20034;-58
2023/03/06 18:33:17;;;;;;;34.50;14.73;;;;;;;6.17;77.92;99378.53;8292131;28;20038;-58
2023/03/06 18:37:18;;;;;;;36.05;17.38;;;;;;;6.19;76.68;99368.50;8279315;28;20033;-58
2023/03/06 18:41:19;;;;;;;35.47;17.55;;;;;;;6.18;76.48;99369.50;8279071;28;20037;-58
2023/03/06 18:45:20;;;;;;;32.70;15.35;;;;;;;6.19;76.57;99362.31;8276600;28;20038;-59
2023/03/06 18:49:20;;;;;;;38.85;19.58;;;;;;;6.16;76.52;99358.03;8284583;28;20107;-60
2023/03/06 18:53:21;;;;;;;29.42;14.90;;;;;;;6.16;76.45;99362.59;8290360;28;20411;-58
2023/03/06 18:57:22;;;;;;;31.02;15.02;;;;;;;6.17;77.10;99365.13;8287263;28;20034;-61
2023/03/06 19:01:22;;;;;;;31.50;14.65;;;;;;;6.15;76.89;99359.03;8291534;28;20048;-58
2023/03/06 19:05:23;;;;;;;33.88;16.08;;;;;;;6.10;77.17;99337.16;8306999;28;20041;-58
2023/03/06 19:09:23;;;;;;;36.22;16.85;;;;;;;6.10;77.95;99342.50;8291737;28;20037;-59
2023/03/06 19:13:24;;;;;;;32.60;16.45;;;;;;;6.07;78.14;99332.91;8286554;28;20121;-62
2023/03/06 19:17:24;;;;;;;35.38;16.08;;;;;;;6.06;78.23;99329.56;8289993;28;20076;-58